sensor_id;sensor_type;location;lat;lon;timestamp;temperature;humidity
17236;DHT22;8734;59.272;17.780;2022-12-18T00:00:09;-0.30;99.90
17236;DHT22;8734;59.272;17.780;2022-12-18T00:02:38;-0.30;99.90
17236;DHT22;8734;59.272;17.780;2022-12-18T00:05:07;-0.30;99.90
17236;DHT22;8734;59.272;17.780;2022-12-18T00:07:35;-0.30;99.90
17236;DHT22;8734;59.272;17.780;2022-12-18T00:10:05;-0.30;99.90
17236;DHT22;8734;59.272;17.780;2022-12-18T00:12:34;-0.30;99.90
17236;DHT22;8734;59.272;17.780;2022-12-18T00:15:03;-0.20;99.90
17236;DHT22;8734;59.272;17.780;2022-12-18T00:17:32;-0.20;99.90
17236;DHT22;8734;59.272;17.780;2022-12-18T00:20:00;-0.30;99.90
17236;DHT22;8734;59.272;17.780;2022-12-18T00:22:28;-0.30;99.90
17236;DHT22;8734;59.272;17.780;2022-12-18T00:24:58;-0.30;99.90
17236;DHT22;8734;59.272;17.780;2022-12-18T00:27:27;-0.30;99.90
17236;DHT22;8734;59.272;17.780;2022-12-18T00:29:56;-0.20;99.90
17236;DHT22;8734;59.272;17.780;2022-12-18T00:32:24;-0.20;99.90
17236;DHT22;8734;59.272;17.780;2022-12-18T00:34:53;-0.20;99.90
17236;DHT22;8734;59.272;17.780;2022-12-18T00:37:22;-0.30;99.90
17236;DHT22;8734;59.272;17.780;2022-12-18T00:39:51;-0.30;99.90
17236;DHT22;8734;59.272;17.780;2022-12-18T00:42:19;-0.20;99.90
17236;DHT22;8734;59.272;17.780;2022-12-18T00:45:07;-0.20;99.90
17236;DHT22;8734;59.272;17.780;2022-12-18T00:47:39;-0.20;99.90
17236;DHT22;8734;59.272;17.780;2022-12-18T00:50:09;-0.30;99.90
17236;DHT22;8734;59.272;17.780;2022-12-18T00:52:37;-0.20;99.90
17236;DHT22;8734;59.272;17.780;2022-12-18T00:55:06;-0.20;99.90
17236;DHT22;8734;59.272;17.780;2022-12-18T00:57:35;-0.30;99.90
17236;DHT22;8734;59.272;17.780;2022-12-18T01:00:07;-0.20;99.90
17236;DHT22;8734;59.272;17.780;2022-12-18T01:02:36;-0.20;99.90
17236;DHT22;8734;59.272;17.780;2022-12-18T01:05:05;-0.20;99.90
17236;DHT22;8734;59.272;17.780;2022-12-18T01:07:34;-0.20;99.90
17236;DHT22;8734;59.272;17.780;2022-12-18T01:10:03;-0.20;99.90
17236;DHT22;8734;59.272;17.780;2022-12-18T01:12:31;-0.20;99.90
17236;DHT22;8734;59.272;17.780;2022-12-18T01:14:59;-0.20;99.90
17236;DHT22;8734;59.272;17.780;2022-12-18T01:17:30;-0.20;99.90
17236;DHT22;8734;59.272;17.780;2022-12-18T01:19:59;-0.20;99.90
17236;DHT22;8734;59.272;17.780;2022-12-18T01:22:27;-0.20;99.90
17236;DHT22;8734;59.272;17.780;2022-12-18T01:24:56;-0.10;99.90
17236;DHT22;8734;59.272;17.780;2022-12-18T01:27:24;-0.20;99.90
17236;DHT22;8734;59.272;17.780;2022-12-18T01:29:53;-0.10;99.90
17236;DHT22;8734;59.272;17.780;2022-12-18T01:32:21;-0.10;99.90
17236;DHT22;8734;59.272;17.780;2022-12-18T01:34:50;-0.10;99.90
17236;DHT22;8734;59.272;17.780;2022-12-18T01:37:19;-0.10;99.90
17236;DHT22;8734;59.272;17.780;2022-12-18T01:39:47;0.00;99.90
17236;DHT22;8734;59.272;17.780;2022-12-18T01:42:17;0.00;99.90
17236;DHT22;8734;59.272;17.780;2022-12-18T01:47:47;0.00;99.90
17236;DHT22;8734;59.272;17.780;2022-12-18T01:50:20;0.00;99.90
17236;DHT22;8734;59.272;17.780;2022-12-18T01:52:50;0.10;99.90
17236;DHT22;8734;59.272;17.780;2022-12-18T01:55:23;0.00;99.90
17236;DHT22;8734;59.272;17.780;2022-12-18T01:57:53;0.10;99.90
17236;DHT22;8734;59.272;17.780;2022-12-18T02:00:25;0.00;99.90
17236;DHT22;8734;59.272;17.780;2022-12-18T02:02:54;0.00;99.90
17236;DHT22;8734;59.272;17.780;2022-12-18T02:05:29;0.10;99.90
17236;DHT22;8734;59.272;17.780;2022-12-18T02:08:09;0.00;99.90
17236;DHT22;8734;59.272;17.780;2022-12-18T02:10:44;0.10;99.90
17236;DHT22;8734;59.272;17.780;2022-12-18T02:13:19;0.00;99.90
17236;DHT22;8734;59.272;17.780;2022-12-18T02:15:56;0.00;99.90
17236;DHT22;8734;59.272;17.780;2022-12-18T02:18:31;0.00;99.90
17236;DHT22;8734;59.272;17.780;2022-12-18T02:21:10;0.10;99.90
17236;DHT22;8734;59.272;17.780;2022-12-18T02:23:48;0.10;99.90
17236;DHT22;8734;59.272;17.780;2022-12-18T02:26:23;0.10;99.90
17236;DHT22;8734;59.272;17.780;2022-12-18T02:28:58;0.10;99.90
17236;DHT22;8734;59.272;17.780;2022-12-18T02:31:30;0.00;99.90
17236;DHT22;8734;59.272;17.780;2022-12-18T02:34:02;0.00;99.90
17236;DHT22;8734;59.272;17.780;2022-12-18T02:36:32;0.10;99.90
17236;DHT22;8734;59.272;17.780;2022-12-18T02:39:02;0.10;99.90
17236;DHT22;8734;59.272;17.780;2022-12-18T02:41:32;0.10;99.90
17236;DHT22;8734;59.272;17.780;2022-12-18T02:44:09;0.10;99.90
17236;DHT22;8734;59.272;17.780;2022-12-18T02:46:40;0.10;99.90
17236;DHT22;8734;59.272;17.780;2022-12-18T02:49:16;0.10;99.90
17236;DHT22;8734;59.272;17.780;2022-12-18T02:51:51;0.10;99.90
17236;DHT22;8734;59.272;17.780;2022-12-18T02:54:27;0.10;99.90
17236;DHT22;8734;59.272;17.780;2022-12-18T02:57:09;0.00;99.90
17236;DHT22;8734;59.272;17.780;2022-12-18T02:59:49;0.00;99.90
17236;DHT22;8734;59.272;17.780;2022-12-18T03:02:22;0.00;99.90
17236;DHT22;8734;59.272;17.780;2022-12-18T03:04:58;0.00;99.90
17236;DHT22;8734;59.272;17.780;2022-12-18T03:07:36;0.00;99.90
17236;DHT22;8734;59.272;17.780;2022-12-18T03:10:09;0.00;99.90
17236;DHT22;8734;59.272;17.780;2022-12-18T03:12:44;0.00;99.90
17236;DHT22;8734;59.272;17.780;2022-12-18T03:15:18;0.00;99.90
17236;DHT22;8734;59.272;17.780;2022-12-18T03:17:52;0.00;99.90
17236;DHT22;8734;59.272;17.780;2022-12-18T03:20:22;0.00;99.90
17236;DHT22;8734;59.272;17.780;2022-12-18T03:22:59;-0.10;99.90
17236;DHT22;8734;59.272;17.780;2022-12-18T03:25:30;0.00;99.90
17236;DHT22;8734;59.272;17.780;2022-12-18T03:28:02;-0.10;99.90
17236;DHT22;8734;59.272;17.780;2022-12-18T03:30:32;-0.10;99.90
17236;DHT22;8734;59.272;17.780;2022-12-18T03:33:05;-0.10;99.90
17236;DHT22;8734;59.272;17.780;2022-12-18T03:35:38;-0.10;99.90
17236;DHT22;8734;59.272;17.780;2022-12-18T03:38:07;-0.10;99.90
17236;DHT22;8734;59.272;17.780;2022-12-18T03:40:49;-0.10;99.90
17236;DHT22;8734;59.272;17.780;2022-12-18T03:43:30;-0.10;99.90
17236;DHT22;8734;59.272;17.780;2022-12-18T03:46:08;-0.10;99.90
17236;DHT22;8734;59.272;17.780;2022-12-18T03:48:44;-0.10;99.90
17236;DHT22;8734;59.272;17.780;2022-12-18T03:51:17;-0.20;99.90
17236;DHT22;8734;59.272;17.780;2022-12-18T03:53:50;-0.20;99.90
17236;DHT22;8734;59.272;17.780;2022-12-18T03:56:23;-0.20;99.90
17236;DHT22;8734;59.272;17.780;2022-12-18T03:58:53;-0.20;99.90
17236;DHT22;8734;59.272;17.780;2022-12-18T04:01:25;-0.20;99.90
17236;DHT22;8734;59.272;17.780;2022-12-18T04:03:57;-0.20;99.90
17236;DHT22;8734;59.272;17.780;2022-12-18T04:06:28;-0.20;99.90
17236;DHT22;8734;59.272;17.780;2022-12-18T04:08:57;-0.20;99.90
17236;DHT22;8734;59.272;17.780;2022-12-18T04:11:26;-0.20;99.90
17236;DHT22;8734;59.272;17.780;2022-12-18T04:13:57;-0.20;99.90
17236;DHT22;8734;59.272;17.780;2022-12-18T04:16:30;-0.20;99.90
17236;DHT22;8734;59.272;17.780;2022-12-18T04:18:58;-0.20;99.90
17236;DHT22;8734;59.272;17.780;2022-12-18T04:21:27;-0.20;99.90
17236;DHT22;8734;59.272;17.780;2022-12-18T04:23:55;-0.20;99.90
17236;DHT22;8734;59.272;17.780;2022-12-18T04:26:24;-0.20;99.90
17236;DHT22;8734;59.272;17.780;2022-12-18T04:28:52;-0.20;99.90
17236;DHT22;8734;59.272;17.780;2022-12-18T04:31:22;-0.20;99.90
17236;DHT22;8734;59.272;17.780;2022-12-18T04:33:50;-0.20;99.90
17236;DHT22;8734;59.272;17.780;2022-12-18T04:36:19;-0.20;99.90
17236;DHT22;8734;59.272;17.780;2022-12-18T04:38:47;-0.30;99.90
17236;DHT22;8734;59.272;17.780;2022-12-18T04:41:15;-0.30;99.90
17236;DHT22;8734;59.272;17.780;2022-12-18T04:43:44;-0.30;99.90
17236;DHT22;8734;59.272;17.780;2022-12-18T04:46:12;-0.30;99.90
17236;DHT22;8734;59.272;17.780;2022-12-18T04:48:45;-0.30;99.90
17236;DHT22;8734;59.272;17.780;2022-12-18T04:51:14;-0.30;99.90
17236;DHT22;8734;59.272;17.780;2022-12-18T04:53:49;-0.30;99.90
17236;DHT22;8734;59.272;17.780;2022-12-18T04:56:18;-0.30;99.90
17236;DHT22;8734;59.272;17.780;2022-12-18T04:58:47;-0.30;99.90
17236;DHT22;8734;59.272;17.780;2022-12-18T05:01:16;-0.30;99.90
17236;DHT22;8734;59.272;17.780;2022-12-18T05:03:48;-0.30;99.90
17236;DHT22;8734;59.272;17.780;2022-12-18T05:06:18;-0.30;99.90
17236;DHT22;8734;59.272;17.780;2022-12-18T05:08:46;-0.30;99.90
17236;DHT22;8734;59.272;17.780;2022-12-18T05:11:15;-0.30;99.90
17236;DHT22;8734;59.272;17.780;2022-12-18T05:13:44;-0.30;99.90
17236;DHT22;8734;59.272;17.780;2022-12-18T05:16:13;-0.30;99.90
17236;DHT22;8734;59.272;17.780;2022-12-18T05:18:42;-0.30;99.90
17236;DHT22;8734;59.272;17.780;2022-12-18T05:21:11;-0.20;99.90
17236;DHT22;8734;59.272;17.780;2022-12-18T05:23:40;-0.20;99.90
17236;DHT22;8734;59.272;17.780;2022-12-18T05:26:09;-0.20;99.90
17236;DHT22;8734;59.272;17.780;2022-12-18T05:28:40;-0.20;99.90
17236;DHT22;8734;59.272;17.780;2022-12-18T05:31:09;-0.10;99.90
17236;DHT22;8734;59.272;17.780;2022-12-18T05:33:38;-0.10;99.90
17236;DHT22;8734;59.272;17.780;2022-12-18T05:36:08;-0.10;99.90
17236;DHT22;8734;59.272;17.780;2022-12-18T05:38:38;-0.10;99.90
17236;DHT22;8734;59.272;17.780;2022-12-18T05:41:08;-0.10;99.90
17236;DHT22;8734;59.272;17.780;2022-12-18T05:43:37;-0.10;99.90
17236;DHT22;8734;59.272;17.780;2022-12-18T05:46:09;-0.10;99.90
17236;DHT22;8734;59.272;17.780;2022-12-18T05:48:39;-0.10;99.90
17236;DHT22;8734;59.272;17.780;2022-12-18T05:51:09;-0.10;99.90
17236;DHT22;8734;59.272;17.780;2022-12-18T05:53:38;-0.10;99.90
17236;DHT22;8734;59.272;17.780;2022-12-18T05:56:09;-0.10;99.90
17236;DHT22;8734;59.272;17.780;2022-12-18T05:58:38;-0.20;99.90
17236;DHT22;8734;59.272;17.780;2022-12-18T06:01:10;-0.20;99.90
17236;DHT22;8734;59.272;17.780;2022-12-18T06:03:39;-0.20;99.90
17236;DHT22;8734;59.272;17.780;2022-12-18T06:06:15;-0.20;99.90
17236;DHT22;8734;59.272;17.780;2022-12-18T06:08:45;-0.20;99.90
17236;DHT22;8734;59.272;17.780;2022-12-18T06:11:17;-0.20;99.90
17236;DHT22;8734;59.272;17.780;2022-12-18T06:13:45;-0.20;99.90
17236;DHT22;8734;59.272;17.780;2022-12-18T06:16:14;-0.20;99.90
17236;DHT22;8734;59.272;17.780;2022-12-18T06:18:43;-0.20;99.90
17236;DHT22;8734;59.272;17.780;2022-12-18T06:21:12;-0.20;99.90
17236;DHT22;8734;59.272;17.780;2022-12-18T06:23:40;-0.20;99.90
17236;DHT22;8734;59.272;17.780;2022-12-18T06:26:12;-0.20;99.90
17236;DHT22;8734;59.272;17.780;2022-12-18T06:28:41;-0.20;99.90
17236;DHT22;8734;59.272;17.780;2022-12-18T06:31:10;-0.20;99.90
17236;DHT22;8734;59.272;17.780;2022-12-18T06:33:39;-0.30;99.90
17236;DHT22;8734;59.272;17.780;2022-12-18T06:36:10;-0.30;99.90
17236;DHT22;8734;59.272;17.780;2022-12-18T06:38:40;-0.30;99.90
17236;DHT22;8734;59.272;17.780;2022-12-18T06:41:12;-0.30;99.90
17236;DHT22;8734;59.272;17.780;2022-12-18T06:43:41;-0.30;99.90
17236;DHT22;8734;59.272;17.780;2022-12-18T06:46:11;-0.30;99.90
17236;DHT22;8734;59.272;17.780;2022-12-18T06:48:39;-0.30;99.90
17236;DHT22;8734;59.272;17.780;2022-12-18T06:51:07;-0.30;99.90
17236;DHT22;8734;59.272;17.780;2022-12-18T06:53:36;-0.30;99.90
17236;DHT22;8734;59.272;17.780;2022-12-18T06:56:06;-0.20;99.90
17236;DHT22;8734;59.272;17.780;2022-12-18T06:58:38;-0.20;99.90
17236;DHT22;8734;59.272;17.780;2022-12-18T07:01:09;-0.20;99.90
17236;DHT22;8734;59.272;17.780;2022-12-18T07:03:38;-0.20;99.90
17236;DHT22;8734;59.272;17.780;2022-12-18T07:06:13;-0.20;99.90
17236;DHT22;8734;59.272;17.780;2022-12-18T07:08:43;-0.20;99.90
17236;DHT22;8734;59.272;17.780;2022-12-18T07:11:11;-0.10;99.90
17236;DHT22;8734;59.272;17.780;2022-12-18T07:13:41;-0.10;99.90
17236;DHT22;8734;59.272;17.780;2022-12-18T07:16:12;0.00;99.90
17236;DHT22;8734;59.272;17.780;2022-12-18T07:18:50;0.00;99.90
17236;DHT22;8734;59.272;17.780;2022-12-18T07:21:19;0.00;99.90
17236;DHT22;8734;59.272;17.780;2022-12-18T07:23:48;0.00;99.90
17236;DHT22;8734;59.272;17.780;2022-12-18T07:26:18;0.00;99.90
17236;DHT22;8734;59.272;17.780;2022-12-18T07:28:49;0.10;99.90
17236;DHT22;8734;59.272;17.780;2022-12-18T07:31:20;0.10;99.90
17236;DHT22;8734;59.272;17.780;2022-12-18T07:33:50;0.20;99.90
17236;DHT22;8734;59.272;17.780;2022-12-18T07:36:19;0.20;99.90
17236;DHT22;8734;59.272;17.780;2022-12-18T07:38:48;0.20;99.90
17236;DHT22;8734;59.272;17.780;2022-12-18T07:41:17;0.20;99.90
17236;DHT22;8734;59.272;17.780;2022-12-18T07:43:46;0.30;99.90
17236;DHT22;8734;59.272;17.780;2022-12-18T07:46:16;0.40;99.90
17236;DHT22;8734;59.272;17.780;2022-12-18T07:48:46;0.30;99.90
17236;DHT22;8734;59.272;17.780;2022-12-18T07:51:16;0.40;99.90
17236;DHT22;8734;59.272;17.780;2022-12-18T07:53:46;0.40;99.90
17236;DHT22;8734;59.272;17.780;2022-12-18T07:56:18;0.40;99.90
17236;DHT22;8734;59.272;17.780;2022-12-18T07:58:57;0.50;99.90
17236;DHT22;8734;59.272;17.780;2022-12-18T08:01:27;0.50;99.90
17236;DHT22;8734;59.272;17.780;2022-12-18T08:03:57;0.50;99.90
17236;DHT22;8734;59.272;17.780;2022-12-18T08:06:26;0.60;99.90
17236;DHT22;8734;59.272;17.780;2022-12-18T08:08:55;0.60;99.90
17236;DHT22;8734;59.272;17.780;2022-12-18T08:11:25;0.70;99.90
17236;DHT22;8734;59.272;17.780;2022-12-18T08:13:55;0.70;99.90
17236;DHT22;8734;59.272;17.780;2022-12-18T08:16:24;0.80;99.90
17236;DHT22;8734;59.272;17.780;2022-12-18T08:18:54;0.80;99.90
17236;DHT22;8734;59.272;17.780;2022-12-18T08:21:23;0.80;99.90
17236;DHT22;8734;59.272;17.780;2022-12-18T08:23:54;0.80;99.90
17236;DHT22;8734;59.272;17.780;2022-12-18T08:26:24;0.90;99.90
17236;DHT22;8734;59.272;17.780;2022-12-18T08:28:55;0.90;99.90
17236;DHT22;8734;59.272;17.780;2022-12-18T08:31:25;1.00;99.90
17236;DHT22;8734;59.272;17.780;2022-12-18T08:33:55;1.00;99.90
17236;DHT22;8734;59.272;17.780;2022-12-18T08:36:24;1.10;99.90
17236;DHT22;8734;59.272;17.780;2022-12-18T08:38:53;1.20;99.90
17236;DHT22;8734;59.272;17.780;2022-12-18T08:41:22;1.20;99.90
17236;DHT22;8734;59.272;17.780;2022-12-18T08:43:51;1.20;99.90
17236;DHT22;8734;59.272;17.780;2022-12-18T08:46:37;1.30;99.90
17236;DHT22;8734;59.272;17.780;2022-12-18T08:49:08;1.30;99.90
17236;DHT22;8734;59.272;17.780;2022-12-18T08:51:37;1.30;99.90
17236;DHT22;8734;59.272;17.780;2022-12-18T08:54:07;1.30;99.90
17236;DHT22;8734;59.272;17.780;2022-12-18T08:56:36;1.40;99.90
17236;DHT22;8734;59.272;17.780;2022-12-18T08:59:04;1.40;99.90
17236;DHT22;8734;59.272;17.780;2022-12-18T09:01:33;1.40;99.90
17236;DHT22;8734;59.272;17.780;2022-12-18T09:04:02;1.50;99.90
17236;DHT22;8734;59.272;17.780;2022-12-18T09:06:34;1.50;99.90
17236;DHT22;8734;59.272;17.780;2022-12-18T09:09:04;1.60;99.90
17236;DHT22;8734;59.272;17.780;2022-12-18T09:11:32;1.60;99.90
17236;DHT22;8734;59.272;17.780;2022-12-18T09:14:02;1.70;99.90
17236;DHT22;8734;59.272;17.780;2022-12-18T09:16:31;1.70;99.90
17236;DHT22;8734;59.272;17.780;2022-12-18T09:19:03;1.70;99.90
17236;DHT22;8734;59.272;17.780;2022-12-18T09:21:37;1.80;99.90
17236;DHT22;8734;59.272;17.780;2022-12-18T09:24:13;1.80;99.90
17236;DHT22;8734;59.272;17.780;2022-12-18T09:26:42;1.80;99.90
17236;DHT22;8734;59.272;17.780;2022-12-18T09:29:14;1.80;99.90
17236;DHT22;8734;59.272;17.780;2022-12-18T09:31:44;1.80;99.90
17236;DHT22;8734;59.272;17.780;2022-12-18T09:34:13;1.90;99.90
17236;DHT22;8734;59.272;17.780;2022-12-18T09:36:42;1.90;99.90
17236;DHT22;8734;59.272;17.780;2022-12-18T09:39:11;2.00;99.90
17236;DHT22;8734;59.272;17.780;2022-12-18T09:41:43;2.00;99.90
17236;DHT22;8734;59.272;17.780;2022-12-18T09:44:18;2.00;99.90
17236;DHT22;8734;59.272;17.780;2022-12-18T09:46:53;2.00;99.90
17236;DHT22;8734;59.272;17.780;2022-12-18T09:49:26;2.10;99.90
17236;DHT22;8734;59.272;17.780;2022-12-18T09:52:02;2.10;99.90
17236;DHT22;8734;59.272;17.780;2022-12-18T09:54:34;2.10;99.90
17236;DHT22;8734;59.272;17.780;2022-12-18T09:57:04;2.10;99.90
17236;DHT22;8734;59.272;17.780;2022-12-18T09:59:36;2.10;99.90
17236;DHT22;8734;59.272;17.780;2022-12-18T10:02:15;2.10;99.90
17236;DHT22;8734;59.272;17.780;2022-12-18T10:04:49;2.10;99.90
17236;DHT22;8734;59.272;17.780;2022-12-18T10:07:26;2.10;99.90
17236;DHT22;8734;59.272;17.780;2022-12-18T10:09:58;2.10;99.90
17236;DHT22;8734;59.272;17.780;2022-12-18T10:12:34;2.20;99.90
17236;DHT22;8734;59.272;17.780;2022-12-18T10:15:15;2.30;99.90
17236;DHT22;8734;59.272;17.780;2022-12-18T10:17:48;2.20;99.90
17236;DHT22;8734;59.272;17.780;2022-12-18T10:20:25;2.30;99.90
17236;DHT22;8734;59.272;17.780;2022-12-18T10:23:02;2.30;99.90
17236;DHT22;8734;59.272;17.780;2022-12-18T10:25:36;2.30;99.90
17236;DHT22;8734;59.272;17.780;2022-12-18T10:28:10;2.30;99.90
17236;DHT22;8734;59.272;17.780;2022-12-18T10:30:41;2.30;99.90
17236;DHT22;8734;59.272;17.780;2022-12-18T10:33:12;2.30;99.90
17236;DHT22;8734;59.272;17.780;2022-12-18T10:35:45;2.30;99.90
17236;DHT22;8734;59.272;17.780;2022-12-18T10:38:25;2.30;99.90
17236;DHT22;8734;59.272;17.780;2022-12-18T10:40:55;2.30;99.90
17236;DHT22;8734;59.272;17.780;2022-12-18T10:43:26;2.30;99.90
17236;DHT22;8734;59.272;17.780;2022-12-18T10:46:12;2.30;99.90
17236;DHT22;8734;59.272;17.780;2022-12-18T10:48:52;2.30;99.90
17236;DHT22;8734;59.272;17.780;2022-12-18T10:51:22;2.30;99.90
17236;DHT22;8734;59.272;17.780;2022-12-18T10:53:56;2.30;99.90
17236;DHT22;8734;59.272;17.780;2022-12-18T10:56:26;2.40;99.90
17236;DHT22;8734;59.272;17.780;2022-12-18T10:58:58;2.30;99.90
17236;DHT22;8734;59.272;17.780;2022-12-18T11:01:26;2.40;99.90
17236;DHT22;8734;59.272;17.780;2022-12-18T11:04:08;2.40;99.90
17236;DHT22;8734;59.272;17.780;2022-12-18T11:06:53;2.40;99.90
17236;DHT22;8734;59.272;17.780;2022-12-18T11:09:25;2.40;99.90
17236;DHT22;8734;59.272;17.780;2022-12-18T11:11:56;2.40;99.90
17236;DHT22;8734;59.272;17.780;2022-12-18T11:14:29;2.40;99.90
17236;DHT22;8734;59.272;17.780;2022-12-18T11:17:00;2.40;99.90
17236;DHT22;8734;59.272;17.780;2022-12-18T11:19:53;2.40;99.90
17236;DHT22;8734;59.272;17.780;2022-12-18T11:22:24;2.40;99.90
17236;DHT22;8734;59.272;17.780;2022-12-18T11:24:58;2.40;99.90
17236;DHT22;8734;59.272;17.780;2022-12-18T11:27:49;2.40;99.90
17236;DHT22;8734;59.272;17.780;2022-12-18T11:30:23;2.40;99.90
17236;DHT22;8734;59.272;17.780;2022-12-18T11:32:54;2.50;99.90
17236;DHT22;8734;59.272;17.780;2022-12-18T11:35:35;2.50;99.90
17236;DHT22;8734;59.272;17.780;2022-12-18T11:38:17;2.50;99.90
17236;DHT22;8734;59.272;17.780;2022-12-18T11:40:52;2.50;99.90
17236;DHT22;8734;59.272;17.780;2022-12-18T11:43:27;2.50;99.90
17236;DHT22;8734;59.272;17.780;2022-12-18T11:46:02;2.50;99.90
17236;DHT22;8734;59.272;17.780;2022-12-18T11:48:36;2.60;99.90
17236;DHT22;8734;59.272;17.780;2022-12-18T11:51:11;2.60;99.90
17236;DHT22;8734;59.272;17.780;2022-12-18T11:53:40;2.60;99.90
17236;DHT22;8734;59.272;17.780;2022-12-18T11:56:26;2.60;99.90
17236;DHT22;8734;59.272;17.780;2022-12-18T11:59:02;2.60;99.90
17236;DHT22;8734;59.272;17.780;2022-12-18T12:01:44;2.60;99.90
17236;DHT22;8734;59.272;17.780;2022-12-18T12:07:23;2.70;99.90
17236;DHT22;8734;59.272;17.780;2022-12-18T12:10:02;2.70;99.90
17236;DHT22;8734;59.272;17.780;2022-12-18T12:12:43;2.70;99.90
17236;DHT22;8734;59.272;17.780;2022-12-18T12:15:25;2.70;99.90
17236;DHT22;8734;59.272;17.780;2022-12-18T12:18:04;2.80;99.90
17236;DHT22;8734;59.272;17.780;2022-12-18T12:20:45;2.80;99.90
17236;DHT22;8734;59.272;17.780;2022-12-18T12:23:22;2.80;99.90
17236;DHT22;8734;59.272;17.780;2022-12-18T12:26:07;2.90;99.90
17236;DHT22;8734;59.272;17.780;2022-12-18T12:28:57;2.90;99.90
17236;DHT22;8734;59.272;17.780;2022-12-18T12:31:42;2.90;99.90
17236;DHT22;8734;59.272;17.780;2022-12-18T12:34:17;2.90;99.90
17236;DHT22;8734;59.272;17.780;2022-12-18T12:36:58;2.90;99.90
17236;DHT22;8734;59.272;17.780;2022-12-18T12:39:32;2.80;99.90
17236;DHT22;8734;59.272;17.780;2022-12-18T12:42:03;2.80;99.90
17236;DHT22;8734;59.272;17.780;2022-12-18T12:44:54;2.90;99.90
17236;DHT22;8734;59.272;17.780;2022-12-18T12:47:27;2.90;99.90
17236;DHT22;8734;59.272;17.780;2022-12-18T12:49:56;3.00;99.90
17236;DHT22;8734;59.272;17.780;2022-12-18T12:52:32;3.00;99.90
17236;DHT22;8734;59.272;17.780;2022-12-18T12:55:05;3.00;99.90
17236;DHT22;8734;59.272;17.780;2022-12-18T12:57:45;3.10;99.90
17236;DHT22;8734;59.272;17.780;2022-12-18T13:00:17;3.10;99.90
17236;DHT22;8734;59.272;17.780;2022-12-18T13:02:51;3.10;99.90
17236;DHT22;8734;59.272;17.780;2022-12-18T13:05:25;3.20;99.90
17236;DHT22;8734;59.272;17.780;2022-12-18T13:07:59;3.20;99.90
17236;DHT22;8734;59.272;17.780;2022-12-18T13:10:34;3.30;99.90
17236;DHT22;8734;59.272;17.780;2022-12-18T13:13:04;3.30;99.90
17236;DHT22;8734;59.272;17.780;2022-12-18T13:15:42;3.30;99.90
17236;DHT22;8734;59.272;17.780;2022-12-18T13:18:18;3.30;99.90
17236;DHT22;8734;59.272;17.780;2022-12-18T13:20:49;3.30;99.90
17236;DHT22;8734;59.272;17.780;2022-12-18T13:23:29;3.30;99.90
17236;DHT22;8734;59.272;17.780;2022-12-18T13:26:00;3.30;99.90
17236;DHT22;8734;59.272;17.780;2022-12-18T13:28:56;3.30;99.90
17236;DHT22;8734;59.272;17.780;2022-12-18T13:34:37;3.30;99.90
17236;DHT22;8734;59.272;17.780;2022-12-18T13:37:40;3.30;99.90
17236;DHT22;8734;59.272;17.780;2022-12-18T13:43:30;3.30;99.90
17236;DHT22;8734;59.272;17.780;2022-12-18T13:46:01;3.40;99.90
17236;DHT22;8734;59.272;17.780;2022-12-18T13:48:32;3.30;99.90
17236;DHT22;8734;59.272;17.780;2022-12-18T13:51:05;3.30;99.90
17236;DHT22;8734;59.272;17.780;2022-12-18T13:53:38;3.20;99.90
17236;DHT22;8734;59.272;17.780;2022-12-18T13:56:08;3.20;99.90
17236;DHT22;8734;59.272;17.780;2022-12-18T13:58:37;3.20;99.90
17236;DHT22;8734;59.272;17.780;2022-12-18T14:01:21;3.20;99.90
17236;DHT22;8734;59.272;17.780;2022-12-18T14:03:50;3.10;99.90
17236;DHT22;8734;59.272;17.780;2022-12-18T14:06:20;3.10;99.90
17236;DHT22;8734;59.272;17.780;2022-12-18T14:08:49;3.10;99.90
17236;DHT22;8734;59.272;17.780;2022-12-18T14:11:20;3.10;99.90
17236;DHT22;8734;59.272;17.780;2022-12-18T14:13:52;3.10;99.90
17236;DHT22;8734;59.272;17.780;2022-12-18T14:16:22;3.10;99.90
17236;DHT22;8734;59.272;17.780;2022-12-18T14:18:53;3.10;99.90
17236;DHT22;8734;59.272;17.780;2022-12-18T14:21:45;3.10;99.90
17236;DHT22;8734;59.272;17.780;2022-12-18T14:24:15;3.10;99.90
17236;DHT22;8734;59.272;17.780;2022-12-18T14:26:47;3.00;99.90
17236;DHT22;8734;59.272;17.780;2022-12-18T14:29:22;3.10;99.90
17236;DHT22;8734;59.272;17.780;2022-12-18T14:32:09;3.00;99.90
17236;DHT22;8734;59.272;17.780;2022-12-18T14:34:45;3.00;99.90
17236;DHT22;8734;59.272;17.780;2022-12-18T14:37:17;3.00;99.90
17236;DHT22;8734;59.272;17.780;2022-12-18T14:39:53;2.90;99.90
17236;DHT22;8734;59.272;17.780;2022-12-18T14:42:23;2.90;99.90
17236;DHT22;8734;59.272;17.780;2022-12-18T14:45:32;2.90;99.90
17236;DHT22;8734;59.272;17.780;2022-12-18T14:48:11;2.90;99.90
17236;DHT22;8734;59.272;17.780;2022-12-18T14:50:45;3.00;99.90
17236;DHT22;8734;59.272;17.780;2022-12-18T14:53:36;2.90;99.90
17236;DHT22;8734;59.272;17.780;2022-12-18T14:56:18;3.10;99.90
17236;DHT22;8734;59.272;17.780;2022-12-18T14:58:49;3.10;99.90
17236;DHT22;8734;59.272;17.780;2022-12-18T15:01:19;3.20;99.90
17236;DHT22;8734;59.272;17.780;2022-12-18T15:03:50;3.10;99.90
17236;DHT22;8734;59.272;17.780;2022-12-18T15:06:32;3.10;99.90
17236;DHT22;8734;59.272;17.780;2022-12-18T15:09:04;3.00;99.90
17236;DHT22;8734;59.272;17.780;2022-12-18T15:11:42;3.10;99.90
17236;DHT22;8734;59.272;17.780;2022-12-18T15:14:31;3.20;99.90
17236;DHT22;8734;59.272;17.780;2022-12-18T15:17:00;3.20;99.90
17236;DHT22;8734;59.272;17.780;2022-12-18T15:19:36;3.20;99.90
17236;DHT22;8734;59.272;17.780;2022-12-18T15:22:17;3.20;99.90
17236;DHT22;8734;59.272;17.780;2022-12-18T15:24:49;3.10;99.90
17236;DHT22;8734;59.272;17.780;2022-12-18T15:27:23;3.10;99.90
17236;DHT22;8734;59.272;17.780;2022-12-18T15:30:21;3.10;99.90
17236;DHT22;8734;59.272;17.780;2022-12-18T15:32:50;3.10;99.90
17236;DHT22;8734;59.272;17.780;2022-12-18T15:35:21;3.10;99.90
17236;DHT22;8734;59.272;17.780;2022-12-18T15:37:51;3.00;99.90
17236;DHT22;8734;59.272;17.780;2022-12-18T15:40:23;3.00;99.90
17236;DHT22;8734;59.272;17.780;2022-12-18T15:42:53;3.00;99.90
17236;DHT22;8734;59.272;17.780;2022-12-18T15:45:40;3.00;99.90
17236;DHT22;8734;59.272;17.780;2022-12-18T15:48:18;3.00;99.90
17236;DHT22;8734;59.272;17.780;2022-12-18T15:50:49;3.10;99.90
17236;DHT22;8734;59.272;17.780;2022-12-18T15:53:18;3.10;99.90
17236;DHT22;8734;59.272;17.780;2022-12-18T15:55:48;3.10;99.90
17236;DHT22;8734;59.272;17.780;2022-12-18T15:58:34;3.00;99.90
17236;DHT22;8734;59.272;17.780;2022-12-18T16:01:02;3.00;99.90
17236;DHT22;8734;59.272;17.780;2022-12-18T16:03:31;3.00;99.90
17236;DHT22;8734;59.272;17.780;2022-12-18T16:06:00;3.10;99.90
17236;DHT22;8734;59.272;17.780;2022-12-18T16:08:31;3.10;99.90
17236;DHT22;8734;59.272;17.780;2022-12-18T16:11:02;3.20;99.90
17236;DHT22;8734;59.272;17.780;2022-12-18T16:13:30;3.10;99.90
17236;DHT22;8734;59.272;17.780;2022-12-18T16:15:58;3.10;99.90
17236;DHT22;8734;59.272;17.780;2022-12-18T16:18:27;3.10;99.90
17236;DHT22;8734;59.272;17.780;2022-12-18T16:20:56;3.10;99.90
17236;DHT22;8734;59.272;17.780;2022-12-18T16:23:24;3.10;99.90
17236;DHT22;8734;59.272;17.780;2022-12-18T16:25:54;3.00;99.90